Værinformasjon

ENOV 061350Z VRB03KT CAVOK M03/M07 Q1007 RMK WIND 2090FT 14022KT


ENSD 061350Z VRB02KT 9999 FEW036 SCT100 M03/M07 Q1009 RMK WIND 1138FT 09006KT


ENAL 061350Z 13015KT CAVOK 00/M05 Q1008


ENML 061350Z 03008KT 9999 FEW060 M05/M09 Q1010